createdAt,value
2022-11-29T00:09:04.748Z,15
2022-11-29T00:19:09.295Z,9
2022-11-29T00:29:14.189Z,9
2022-11-29T00:39:20.603Z,10
2022-11-29T00:49:25.088Z,9
2022-11-29T00:59:30.982Z,9
2022-11-29T01:09:37.684Z,13
2022-11-29T01:19:45.221Z,12
2022-11-29T01:29:47.607Z,11
2022-11-29T01:39:54.715Z,9
2022-11-29T01:50:02.443Z,7
2022-11-29T02:00:09.209Z,7
2022-11-29T02:10:15.380Z,8
2022-11-29T02:20:20.622Z,8
2022-11-29T02:30:27.924Z,6
2022-11-29T02:40:32.874Z,7
2022-11-29T02:50:36.790Z,7
2022-11-29T03:00:40.939Z,8
2022-11-29T03:10:47.956Z,7
2022-11-29T03:20:55.587Z,9
2022-11-29T03:31:01.783Z,13
2022-11-29T03:41:06.877Z,9
2022-11-29T03:51:12.206Z,8
2022-11-29T04:01:20.897Z,11
2022-11-29T04:11:26.998Z,9
2022-11-29T04:21:34.813Z,10
2022-11-29T04:31:40.262Z,7
2022-11-29T04:41:46.227Z,9
2022-11-29T04:51:52.163Z,6
2022-11-29T05:01:57.749Z,6
2022-11-29T05:12:10.623Z,6
2022-11-29T05:22:10.190Z,6
2022-11-29T05:32:16.742Z,5
2022-11-29T05:42:23.474Z,3
2022-11-29T05:52:29.848Z,5
2022-11-29T06:02:35.640Z,5
2022-11-29T06:12:42.004Z,6
2022-11-29T06:22:48.985Z,8
2022-11-29T06:32:52.991Z,7
2022-11-29T06:42:59.251Z,8
2022-11-29T06:53:07.749Z,10
2022-11-29T07:03:14.033Z,7
2022-11-29T07:13:18.450Z,8
2022-11-29T07:23:25.300Z,4
2022-11-29T07:33:42.168Z,4
2022-11-29T07:43:38.292Z,4
2022-11-29T07:53:44.223Z,4
2022-11-29T08:03:49.472Z,6
2022-11-29T08:13:55.353Z,6
2022-11-29T08:24:00.912Z,5
2022-11-29T08:34:05.674Z,4
2022-11-29T08:44:10.574Z,4
2022-11-29T08:54:15.689Z,4
2022-11-29T09:04:45.081Z,5
2022-11-29T09:14:52.157Z,4
2022-11-29T09:24:59.309Z,7
2022-11-29T09:35:04.593Z,4
2022-11-29T09:45:09.360Z,6
2022-11-29T09:55:13.508Z,4
2022-11-29T10:05:19.791Z,4
2022-11-29T10:15:28.384Z,2
2022-11-29T10:25:31.990Z,3
2022-11-29T10:35:36.053Z,4
2022-11-29T10:45:42.033Z,3
2022-11-29T10:55:46.646Z,5
2022-11-29T11:05:51.690Z,4
2022-11-29T11:15:57.258Z,4
2022-11-29T11:26:02.604Z,5
2022-11-29T11:36:08.255Z,5
2022-11-29T11:46:17.796Z,8
2022-11-29T11:56:17.881Z,8
2022-11-29T12:06:27.916Z,2
2022-11-29T12:16:28.957Z,3
2022-11-29T12:27:05.452Z,3
2022-11-29T12:37:00.143Z,3
2022-11-29T12:47:34.451Z,3
2022-11-29T12:57:29.719Z,6
2022-11-29T13:07:37.497Z,5
2022-11-29T13:17:41.039Z,3
2022-11-29T13:27:47.618Z,4
2022-11-29T13:37:56.254Z,5
2022-11-29T13:48:02.694Z,3
2022-11-29T13:58:47.997Z,3
2022-11-29T14:09:17.026Z,7
2022-11-29T14:19:12.518Z,3
2022-11-29T14:29:18.050Z,6
2022-11-29T14:39:23.381Z,3
2022-11-29T14:49:30.038Z,4
2022-11-29T14:59:36.296Z,5
2022-11-29T15:09:43.671Z,6
2022-11-29T15:19:49.992Z,4
2022-11-29T15:29:55.390Z,9
2022-11-29T15:40:01.591Z,6
2022-11-29T15:50:06.819Z,13
2022-11-29T16:00:12.281Z,21
2022-11-29T16:10:18.168Z,25
2022-11-29T16:20:23.189Z,8
2022-11-29T16:30:30.258Z,8
2022-11-29T16:40:36.432Z,17
2022-11-29T16:50:43.261Z,6
2022-11-29T17:00:48.379Z,5
2022-11-29T17:10:55.076Z,5
2022-11-29T17:21:02.235Z,5
2022-11-29T17:31:05.861Z,7
2022-11-29T17:41:12.827Z,9
2022-11-29T17:51:43.503Z,6
2022-11-29T18:01:44.077Z,10
2022-11-29T18:11:51.240Z,20
2022-11-29T18:21:57.004Z,5
2022-11-29T18:32:04.069Z,7
2022-11-29T18:42:16.448Z,7
2022-11-29T18:52:22.885Z,8
2022-11-29T19:02:26.971Z,8
2022-11-29T19:12:31.903Z,14
2022-11-29T19:22:38.227Z,8
2022-11-29T19:32:44.519Z,25
2022-11-29T19:42:50.549Z,13
2022-11-29T19:52:55.123Z,16
2022-11-29T20:03:01.611Z,5
2022-11-29T20:13:07.126Z,7
2022-11-29T20:23:12.518Z,6
2022-11-29T20:33:18.091Z,8
2022-11-29T20:43:25.075Z,10
2022-11-29T20:53:29.185Z,7
2022-11-29T21:03:36.347Z,10
2022-11-29T21:13:43.133Z,5
2022-11-29T21:23:50.323Z,5
2022-11-29T21:33:56.069Z,9
2022-11-29T21:44:46.595Z,8
2022-11-29T21:54:40.179Z,14
2022-11-29T22:04:45.655Z,13
2022-11-29T22:14:49.718Z,12
2022-11-29T22:24:56.368Z,14
2022-11-29T22:35:02.302Z,15
2022-11-29T22:45:06.691Z,14
2022-11-29T22:55:12.158Z,16
2022-11-29T23:05:18.183Z,17
2022-11-29T23:15:31.835Z,16
2022-11-29T23:25:30.500Z,15
2022-11-29T23:35:35.450Z,14
2022-11-29T23:45:40.575Z,19
2022-11-29T23:55:47.567Z,20
